Time;durP1;ratioP1;P1;durP2;ratioP2;P2;SDS_P1;SDS_P2;PMS_P1;PMS_P2;Temp;Humidity;BMP_temperature;BMP_pressure;BME280_temperature;BME280_humidity;BME280_pressure;Samples;Min_cycle;Max_cycle;Signal;HPM_P1;HPM_P2
2020/12/10 00:02:04;;;;;;;14.70;11.55;;;;;;;22.07;27.20;93636.88;5075551;28;20059;-55
2020/12/10 00:04:32;;;;;;;12.85;8.68;;;;;;;22.21;26.72;93646.06;5088357;28;20051;-56
2020/12/10 00:06:59;;;;;;;13.85;9.90;;;;;;;19.92;30.07;93651.56;5102970;28;20362;-55
2020/12/10 00:09:27;;;;;;;15.10;10.85;;;;;;;19.80;30.66;93661.66;5077058;28;20041;-56
2020/12/10 00:11:54;;;;;;;11.48;9.20;;;;;;;20.59;29.59;93651.53;5075006;28;20379;-57
2020/12/10 00:14:22;;;;;;;9.80;8.27;;;;;;;20.43;29.49;93650.22;5074837;28;20047;-57
2020/12/10 00:16:56;;;;;;;10.60;8.65;;;;;;;20.15;29.92;93643.47;5097278;28;20366;-55
2020/12/10 00:19:24;;;;;;;11.40;8.15;;;;;;;19.79;30.66;93623.00;5098081;28;20487;-62
2020/12/10 00:21:55;;;;;;;13.65;8.63;;;;;;;19.45;31.30;93619.50;5091440;28;20071;-56
2020/12/10 00:24:22;;;;;;;10.27;7.20;;;;;;;19.95;30.49;93628.84;5075264;28;20451;-54
2020/12/10 00:26:50;;;;;;;6.80;6.10;;;;;;;20.05;30.03;93620.25;5083515;28;20051;-55
2020/12/10 00:29:17;;;;;;;9.63;7.30;;;;;;;19.71;30.67;93612.28;5073552;28;20055;-55
2020/12/10 00:31:45;;;;;;;11.13;8.27;;;;;;;19.10;31.86;93621.31;5074986;28;20051;-57
2020/12/10 00:34:13;;;;;;;13.07;8.88;;;;;;;19.04;31.99;93624.63;5082822;28;20055;-56
2020/12/10 00:36:41;;;;;;;11.43;9.05;;;;;;;18.43;33.15;93633.47;5110931;28;20063;-58
2020/12/10 00:39:08;;;;;;;15.13;9.25;;;;;;;17.47;34.75;93615.81;5074924;28;20047;-56
2020/12/10 00:41:36;;;;;;;11.32;9.00;;;;;;;18.13;33.72;93633.31;5074811;28;20047;-58
2020/12/10 00:44:05;;;;;;;9.25;7.25;;;;;;;18.14;33.85;93640.16;5056763;28;20067;-54
2020/12/10 00:46:33;;;;;;;8.80;7.15;;;;;;;18.11;33.83;93646.91;5067395;28;20366;-54
2020/12/10 00:49:01;;;;;;;9.35;7.90;;;;;;;17.87;34.26;93633.97;5100683;28;20046;-53
2020/12/10 00:51:29;;;;;;;8.73;7.15;;;;;;;18.19;33.61;93632.69;5101145;28;20472;-54
2020/12/10 00:53:56;;;;;;;8.48;7.28;;;;;;;18.14;33.63;93640.16;5101032;28;20054;-55
2020/12/10 00:56:24;;;;;;;8.95;7.35;;;;;;;17.78;34.42;93628.16;5118750;28;20051;-54
2020/12/10 00:59:03;;;;;;;10.70;7.63;;;;;;;18.10;33.85;93637.44;5119274;28;20074;-56
2020/12/10 01:01:31;;;;;;;13.23;9.30;;;;;;;17.96;34.03;93625.84;5119425;28;20052;-54
2020/12/10 01:03:58;;;;;;;12.57;9.05;;;;;;;17.84;34.40;93624.88;5119004;28;20043;-55
2020/12/10 01:06:28;;;;;;;14.10;9.48;;;;;;;17.53;34.64;93611.78;5112894;28;20052;-57
2020/12/10 01:08:55;;;;;;;15.90;11.35;;;;;;;17.77;34.12;93606.25;5098701;28;20051;-57
2020/12/10 01:11:42;;;;;;;18.50;14.10;;;;;;;18.02;33.77;93598.00;5105643;28;20035;-56
2020/12/10 01:14:18;;;;;;;22.15;15.85;;;;;;;17.60;34.34;93601.34;5098903;28;20052;-56
2020/12/10 01:16:48;;;;;;;18.98;14.68;;;;;;;17.47;34.40;93602.59;5098425;28;20044;-57
2020/12/10 01:19:19;;;;;;;18.15;14.35;;;;;;;17.50;34.38;93615.13;5098615;28;20051;-56
2020/12/10 01:21:46;;;;;;;17.10;13.68;;;;;;;17.67;33.80;93625.28;5098737;28;20044;-57
2020/12/10 01:24:13;;;;;;;17.00;13.65;;;;;;;17.43;34.60;93614.94;5111768;28;20051;-56
2020/12/10 01:26:42;;;;;;;19.50;14.38;;;;;;;17.46;34.56;93616.94;5118842;28;20054;-57
2020/12/10 01:29:09;;;;;;;15.55;11.95;;;;;;;18.20;33.63;93607.00;5118806;28;20047;-55
2020/12/10 01:31:36;;;;;;;17.17;11.95;;;;;;;17.65;34.28;93593.13;5118968;28;20043;-58
2020/12/10 01:34:06;;;;;;;19.15;12.85;;;;;;;17.79;34.05;93595.31;5118320;28;20480;-56
2020/12/10 01:36:33;;;;;;;14.25;11.02;;;;;;;17.83;34.26;93602.19;5118837;28;20078;-55
2020/12/10 01:39:03;;;;;;;12.82;10.50;;;;;;;17.70;34.29;93584.19;5118412;28;20051;-56
2020/12/10 01:41:32;;;;;;;17.35;12.68;;;;;;;17.74;34.11;93577.88;5118688;28;20043;-56
2020/12/10 01:44:14;;;;;;;17.20;13.40;;;;;;;17.46;34.47;93603.72;5118009;28;20039;-55
2020/12/10 01:46:46;;;;;;;29.15;20.52;;;;;;;17.60;33.74;93590.75;5118353;28;20059;-55
2020/12/10 01:49:14;;;;;;;28.38;19.83;;;;;;;17.49;34.08;93592.44;5118469;28;20365;-57
2020/12/10 01:51:42;;;;;;;18.50;12.80;;;;;;;18.73;32.79;93583.31;5084010;28;20048;-55
2020/12/10 01:54:09;;;;;;;21.25;16.40;;;;;;;17.94;33.46;93572.53;5098206;28;20059;-55
2020/12/10 01:56:36;;;;;;;20.20;15.10;;;;;;;17.62;34.07;93572.69;5117815;28;20047;-54
2020/12/10 01:59:05;;;;;;;21.58;16.65;;;;;;;17.36;34.23;93580.47;5118179;28;20048;-54
2020/12/10 02:01:33;;;;;;;19.02;14.93;;;;;;;17.42;34.67;93592.28;5099298;28;20055;-55
2020/12/10 02:04:00;;;;;;;20.45;15.52;;;;;;;17.49;35.10;93590.56;5081361;28;20359;-54
2020/12/10 02:06:27;;;;;;;19.58;13.43;;;;;;;17.75;34.47;93587.31;5118095;28;20059;-56
2020/12/10 02:08:54;;;;;;;19.33;14.07;;;;;;;17.60;34.37;93592.66;5117893;28;20047;-55
2020/12/10 02:11:29;;;;;;;21.23;15.95;;;;;;;17.26;34.93;93587.84;5118115;28;20043;-54
2020/12/10 02:13:56;;;;;;;19.05;13.73;;;;;;;17.55;34.62;93588.41;5117852;28;20353;-58
2020/12/10 02:16:23;;;;;;;17.70;14.07;;;;;;;17.28;35.04;93590.13;5118382;28;20361;-58
2020/12/10 02:18:54;;;;;;;19.85;15.20;;;;;;;18.36;33.31;93607.66;5117239;28;20051;-57
2020/12/10 02:21:22;;;;;;;16.10;12.50;;;;;;;18.84;32.49;93580.81;5111777;28;20474;-56
2020/12/10 02:23:57;;;;;;;11.45;9.35;;;;;;;19.59;30.90;93599.28;5076993;28;20060;-57
2020/12/10 02:26:26;;;;;;;10.27;8.27;;;;;;;18.56;32.78;93565.25;5077263;28;20063;-57
2020/12/10 02:28:58;;;;;;;10.40;8.88;;;;;;;18.27;33.65;93575.38;5076767;28;20482;-56
2020/12/10 02:31:28;;;;;;;11.10;8.98;;;;;;;18.01;34.23;93573.44;5077104;28;20052;-56
2020/12/10 02:34:00;;;;;;;11.38;8.98;;;;;;;18.10;34.37;93559.97;5079745;28;20052;-56
2020/12/10 02:36:27;;;;;;;10.75;8.55;;;;;;;17.92;34.68;93554.38;5096212;28;20044;-59
2020/12/10 02:38:54;;;;;;;11.35;9.00;;;;;;;17.96;34.76;93554.47;5096973;28;20048;-57
2020/12/10 02:41:22;;;;;;;12.25;9.63;;;;;;;18.00;34.90;93560.56;5097196;28;20048;-59
2020/12/10 02:43:49;;;;;;;11.32;9.68;;;;;;;17.80;35.31;93559.84;5096956;28;20442;-56
2020/12/10 02:46:16;;;;;;;10.82;9.35;;;;;;;17.38;35.83;93557.88;5096542;28;20040;-56
2020/12/10 02:48:44;;;;;;;12.48;9.75;;;;;;;17.74;35.06;93564.66;5096865;28;20055;-56
2020/12/10 02:51:11;;;;;;;11.25;9.68;;;;;;;19.08;32.44;93573.22;5088627;28;20079;-54
2020/12/10 02:53:39;;;;;;;11.55;9.90;;;;;;;18.54;33.59;93557.69;5076380;28;20056;-58
2020/12/10 02:56:14;;;;;;;13.00;10.40;;;;;;;18.28;34.34;93555.75;5093555;28;20047;-56
2020/12/10 02:58:42;;;;;;;13.13;10.70;;;;;;;18.23;34.34;93542.81;5096554;28;20052;-57
2020/12/10 03:01:10;;;;;;;15.23;12.75;;;;;;;17.99;34.94;93538.66;5096749;28;20047;-56
2020/12/10 03:03:37;;;;;;;17.40;12.73;;;;;;;17.30;36.67;93529.03;5085648;28;20056;-56
2020/12/10 03:06:06;;;;;;;16.08;12.50;;;;;;;17.21;37.19;93547.75;5098030;28;20493;-57
2020/12/10 03:08:34;;;;;;;43.05;26.38;;;;;;;18.38;34.53;93555.16;5095457;28;20048;-56
2020/12/10 03:11:01;;;;;;;21.17;14.38;;;;;;;17.83;35.67;93569.69;5096459;28;20044;-54
2020/12/10 03:13:28;;;;;;;25.48;18.73;;;;;;;19.41;32.74;93569.09;5096512;28;20044;-55
2020/12/10 03:15:56;;;;;;;18.52;13.45;;;;;;;18.90;33.19;93553.69;5091602;28;20048;-58
2020/12/10 03:18:24;;;;;;;14.15;11.57;;;;;;;18.39;34.29;93540.81;5096309;28;20336;-66
2020/12/10 03:20:52;;;;;;;15.00;12.85;;;;;;;18.23;35.13;93556.06;5096452;28;20040;-56
2020/12/10 03:23:20;;;;;;;16.40;12.18;;;;;;;18.41;34.98;93549.16;5096122;28;20079;-58
2020/12/10 03:25:47;;;;;;;14.18;12.10;;;;;;;17.87;36.26;93555.44;5095892;28;20461;-56
2020/12/10 03:28:14;;;;;;;12.48;11.13;;;;;;;18.15;35.68;93541.16;5095989;28;20058;-57
2020/12/10 03:30:41;;;;;;;15.63;12.75;;;;;;;18.39;34.99;93535.50;5096196;28;20048;-55
2020/12/10 03:33:08;;;;;;;14.55;12.27;;;;;;;18.29;35.43;93533.47;5096038;28;20733;-59
2020/12/10 03:35:35;;;;;;;17.30;12.25;;;;;;;18.29;35.44;93536.13;5099078;28;20055;-55
2020/12/10 03:38:02;;;;;;;16.65;12.85;;;;;;;18.63;34.67;93544.97;5096009;28;20064;-56
2020/12/10 03:40:30;;;;;;;16.35;13.10;;;;;;;18.15;35.76;93528.69;5096132;28;20051;-55
2020/12/10 03:42:57;;;;;;;16.23;12.98;;;;;;;18.31;35.46;93541.81;5095880;28;20040;-56
2020/12/10 03:45:24;;;;;;;16.70;13.45;;;;;;;18.28;35.85;93534.59;5095486;28;20051;-55
2020/12/10 03:47:51;;;;;;;14.90;12.02;;;;;;;18.29;35.96;93525.53;5095752;28;20058;-57
2020/12/10 03:50:18;;;;;;;15.02;12.90;;;;;;;18.45;35.42;93538.63;5095764;28;20048;-56
2020/12/10 03:52:45;;;;;;;13.38;11.55;;;;;;;18.40;35.71;93520.41;5095773;28;20047;-55
2020/12/10 03:55:12;;;;;;;13.55;11.52;;;;;;;18.64;35.17;93527.22;5095465;28;20058;-57
2020/12/10 03:57:39;;;;;;;12.38;10.70;;;;;;;18.42;35.49;93540.09;5095509;28;20043;-57
2020/12/10 04:00:07;;;;;;;12.60;11.07;;;;;;;18.54;35.46;93562.97;5095700;28;20052;-55
2020/12/10 04:02:34;;;;;;;12.65;10.93;;;;;;;18.51;35.40;93557.63;5095684;28;20052;-56
2020/12/10 04:05:01;;;;;;;11.90;10.60;;;;;;;18.49;35.33;93556.09;5099618;28;20044;-55
2020/12/10 04:07:28;;;;;;;12.13;10.65;;;;;;;18.95;34.64;93555.25;5095363;28;20047;-57
2020/12/10 04:09:55;;;;;;;13.05;10.85;;;;;;;18.49;35.35;93540.22;5095532;28;20050;-54
2020/12/10 04:12:22;;;;;;;12.68;10.65;;;;;;;18.84;35.08;93549.81;5095586;28;20366;-56
2020/12/10 04:14:49;;;;;;;12.20;10.90;;;;;;;18.79;34.88;93553.53;5098926;28;20059;-55
2020/12/10 04:17:16;;;;;;;12.27;10.85;;;;;;;18.97;34.66;93558.31;5115549;28;20039;-56
2020/12/10 04:19:43;;;;;;;11.70;10.40;;;;;;;18.67;35.25;93563.56;5115496;28;20469;-54
2020/12/10 04:22:10;;;;;;;12.23;10.25;;;;;;;19.04;34.78;93569.78;5115665;28;20058;-56
2020/12/10 04:24:37;;;;;;;12.15;10.63;;;;;;;18.88;34.88;93566.50;5115326;28;20067;-55
2020/12/10 04:27:04;;;;;;;12.02;10.60;;;;;;;18.79;35.04;93560.72;5115269;28;20390;-57
2020/12/10 04:29:31;;;;;;;11.52;10.32;;;;;;;18.95;35.11;93566.59;5115793;28;20058;-56
2020/12/10 04:31:58;;;;;;;13.27;10.35;;;;;;;18.46;36.11;93556.03;5115616;28;20043;-57
2020/12/10 04:34:27;;;;;;;13.90;11.57;;;;;;;19.06;34.63;93567.53;5114646;28;20039;-55
2020/12/10 04:36:54;;;;;;;12.35;10.60;;;;;;;18.95;35.09;93550.72;5094914;28;20036;-57
2020/12/10 04:39:21;;;;;;;12.75;10.82;;;;;;;19.05;34.93;93563.34;5094738;28;20051;-58
2020/12/10 04:41:48;;;;;;;12.55;11.25;;;;;;;19.01;35.19;93559.13;5095233;28;20044;-60
2020/12/10 04:44:15;;;;;;;14.20;11.52;;;;;;;19.02;34.85;93540.25;5077089;28;20059;-57
2020/12/10 04:46:45;;;;;;;13.40;11.40;;;;;;;19.16;34.91;93573.31;5094527;28;20082;-56
2020/12/10 04:49:13;;;;;;;20.10;16.42;;;;;;;18.75;35.11;93549.31;5094916;28;20047;-55
2020/12/10 04:51:43;;;;;;;19.23;16.05;;;;;;;18.79;35.08;93558.84;5077340;28;20383;-55
2020/12/10 04:54:10;;;;;;;18.65;15.82;;;;;;;18.70;35.45;93557.53;5077225;28;20055;-55
2020/12/10 04:56:38;;;;;;;18.40;15.38;;;;;;;18.65;35.36;93547.25;5094515;28;20039;-54
2020/12/10 04:59:05;;;;;;;17.67;15.52;;;;;;;19.05;34.66;93560.72;5094806;28;20044;-56
2020/12/10 05:01:32;;;;;;;16.58;13.60;;;;;;;20.72;31.37;93550.31;5094936;28;20493;-57
2020/12/10 05:04:00;;;;;;;17.67;15.25;;;;;;;19.26;33.96;93538.28;5096815;28;20134;-55
2020/12/10 05:06:27;;;;;;;16.40;14.32;;;;;;;19.30;34.19;93539.06;5093316;28;20051;-57
2020/12/10 05:09:07;;;;;;;16.25;14.00;;;;;;;19.45;34.05;93551.34;5094909;28;20465;-55
2020/12/10 05:11:36;;;;;;;14.45;12.70;;;;;;;18.85;35.29;93556.63;5094738;28;20063;-57
2020/12/10 05:14:03;;;;;;;22.73;19.55;;;;;;;19.21;34.33;93570.34;5094956;28;20725;-54
2020/12/10 05:16:30;;;;;;;24.02;19.83;;;;;;;19.93;32.90;93548.88;5094598;28;20044;-57
2020/12/10 05:19:19;;;;;;;23.80;19.35;;;;;;;19.18;34.27;93547.22;5094722;28;20048;-61
2020/12/10 05:22:01;;;;;;;21.75;18.38;;;;;;;18.99;34.74;93562.13;5094870;28;20048;-57
2020/12/10 05:24:29;;;;;;;21.33;18.50;;;;;;;18.48;35.57;93553.81;5076872;28;20481;-59
2020/12/10 05:27:23;;;;;;;18.45;16.10;;;;;;;18.89;35.10;93552.16;5076648;28;20056;-57
2020/12/10 05:29:51;;;;;;;18.63;16.13;;;;;;;18.73;35.08;93560.25;5074737;28;20439;-57
2020/12/10 05:32:40;;;;;;;22.50;19.58;;;;;;;18.00;36.56;93550.75;5092621;28;20075;-58
2020/12/10 05:35:13;;;;;;;20.02;16.67;;;;;;;17.95;36.86;93563.47;5096636;28;20374;-59
2020/12/10 05:37:41;;;;;;;22.27;19.95;;;;;;;18.41;35.78;93562.38;5097848;28;20046;-56
2020/12/10 05:40:08;;;;;;;27.38;24.48;;;;;;;17.77;37.27;93566.59;5099610;28;20044;-58
2020/12/10 05:42:40;;;;;;;18.17;15.10;;;;;;;19.00;35.30;93571.63;5118456;28;20043;-57
2020/12/10 05:45:22;;;;;;;12.35;11.05;;;;;;;20.55;32.15;93570.28;5102364;28;20048;-54
2020/12/10 05:47:51;;;;;;;11.88;10.50;;;;;;;20.37;32.36;93566.72;5077999;28;20055;-49
2020/12/10 05:50:26;;;;;;;13.30;11.18;;;;;;;19.48;34.04;93576.38;5097465;28;20051;-54
2020/12/10 05:53:08;;;;;;;17.80;15.90;;;;;;;20.65;31.99;93588.22;5097603;28;20052;-54
2020/12/10 05:55:38;;;;;;;17.60;15.52;;;;;;;19.50;33.93;93585.47;5097378;28;20055;-55
2020/12/10 05:58:06;;;;;;;17.95;16.10;;;;;;;19.47;33.99;93580.91;5097918;28;20048;-60
2020/12/10 06:00:34;;;;;;;12.27;10.95;;;;;;;19.33;34.74;93570.16;5063749;28;20054;-60
2020/12/10 06:03:01;;;;;;;14.65;13.15;;;;;;;19.41;34.63;93601.66;5086363;28;20049;-59
2020/12/10 06:05:29;;;;;;;14.35;12.85;;;;;;;20.27;33.07;93605.28;5100220;28;20051;-62
2020/12/10 06:08:02;;;;;;;14.55;12.30;;;;;;;18.67;36.13;93576.78;5098005;28;20056;-55
2020/12/10 06:10:39;;;;;;;12.35;10.18;;;;;;;18.89;36.47;93591.13;5118090;28;20438;-59
2020/12/10 06:13:07;;;;;;;15.18;11.32;;;;;;;20.49;33.02;93595.66;5118036;28;20054;-56
2020/12/10 06:15:34;;;;;;;11.98;10.32;;;;;;;18.82;36.16;93575.13;5090763;28;20059;-57
2020/12/10 06:18:07;;;;;;;9.18;8.07;;;;;;;19.45;35.53;93585.03;5097393;28;20051;-55
2020/12/10 06:20:35;;;;;;;14.02;10.70;;;;;;;21.22;31.72;93604.53;5096538;28;20385;-61
2020/12/10 06:23:28;;;;;;;11.98;10.35;;;;;;;19.26;35.32;93596.56;5077116;28;20114;-58
2020/12/10 06:25:57;;;;;;;11.02;9.40;;;;;;;18.86;36.16;93589.94;5086335;28;20431;-58
2020/12/10 06:28:25;;;;;;;11.65;9.20;;;;;;;18.84;36.52;93608.06;5091030;28;20083;-56
2020/12/10 06:31:03;;;;;;;10.75;9.65;;;;;;;18.71;36.80;93604.06;5077067;28;20467;-58
2020/12/10 06:33:37;;;;;;;10.40;9.30;;;;;;;18.99;36.36;93585.97;5077075;28;20387;-56
2020/12/10 06:36:26;;;;;;;11.65;10.18;;;;;;;18.90;36.31;93596.06;5115522;28;20050;-58
2020/12/10 06:38:55;;;;;;;11.10;10.00;;;;;;;18.89;36.78;93589.22;5117558;28;20039;-58
2020/12/10 06:41:23;;;;;;;14.27;11.02;;;;;;;18.47;37.43;93579.47;5117828;28;20044;-57
2020/12/10 06:43:50;;;;;;;12.00;9.75;;;;;;;19.27;36.21;93595.44;5117406;28;20043;-57
2020/12/10 06:46:17;;;;;;;16.23;13.82;;;;;;;19.99;34.16;93611.06;5106684;28;20048;-57
2020/12/10 06:48:49;;;;;;;13.00;11.50;;;;;;;20.85;32.50;93613.41;5059203;28;20059;-56
2020/12/10 06:51:20;;;;;;;15.90;12.07;;;;;;;20.74;32.46;93612.56;5076710;28;20051;-58
2020/12/10 06:53:59;;;;;;;14.82;11.73;;;;;;;19.69;34.30;93609.22;5076537;28;20364;-56
2020/12/10 06:56:27;;;;;;;13.23;11.70;;;;;;;20.12;33.89;93614.25;5088810;28;20107;-56
2020/12/10 06:59:02;;;;;;;13.40;10.90;;;;;;;19.71;34.60;93595.59;5096799;28;20059;-56
2020/12/10 07:01:37;;;;;;;12.85;11.10;;;;;;;19.79;34.55;93617.69;5096681;28;20439;-58
2020/12/10 07:04:13;;;;;;;16.80;13.90;;;;;;;21.15;32.12;93601.84;5099191;28;20055;-56
2020/12/10 07:06:40;;;;;;;24.63;16.63;;;;;;;21.87;30.70;93598.41;5097674;28;20044;-57
2020/12/10 07:09:08;;;;;;;21.48;16.55;;;;;;;21.66;30.62;93606.31;5077015;28;20059;-59
2020/12/10 07:11:36;;;;;;;19.98;15.10;;;;;;;20.69;32.86;93601.50;5076332;28;20056;-59
2020/12/10 07:14:21;;;;;;;17.63;15.52;;;;;;;19.99;34.07;93606.53;5076296;28;20048;-57
2020/12/10 07:16:49;;;;;;;18.23;15.27;;;;;;;20.16;33.84;93602.53;5090815;28;20072;-57
2020/12/10 07:19:16;;;;;;;18.65;15.48;;;;;;;20.01;33.98;93604.28;5096343;28;20458;-58
2020/12/10 07:21:43;;;;;;;18.50;15.52;;;;;;;20.00;34.53;93607.28;5096358;28;20047;-59
2020/12/10 07:24:11;;;;;;;17.52;15.10;;;;;;;19.82;34.92;93627.56;5076145;28;20064;-56
2020/12/10 07:26:39;;;;;;;19.05;15.27;;;;;;;19.96;34.12;93628.47;5089041;28;20467;-62
2020/12/10 07:29:06;;;;;;;15.38;13.50;;;;;;;20.08;34.02;93640.75;5096168;28;20043;-56
2020/12/10 07:31:33;;;;;;;18.15;14.95;;;;;;;19.65;35.02;93634.19;5096185;28;20047;-58
2020/12/10 07:34:00;;;;;;;16.45;14.57;;;;;;;19.87;34.54;93621.94;5080418;28;20462;-57
2020/12/10 07:36:30;;;;;;;19.13;15.13;;;;;;;20.04;34.42;93608.13;5104507;28;20119;-57
2020/12/10 07:38:58;;;;;;;18.38;13.18;;;;;;;20.02;34.25;93615.66;5096054;28;20039;-57
2020/12/10 07:41:26;;;;;;;16.98;13.45;;;;;;;19.95;34.62;93623.53;5096045;28;20063;-61
2020/12/10 07:43:53;;;;;;;20.38;14.40;;;;;;;20.36;34.05;93621.69;5078040;28;20055;-57
2020/12/10 07:46:21;;;;;;;23.35;17.83;;;;;;;21.70;31.68;93623.03;5086345;28;20044;-56
2020/12/10 07:48:48;;;;;;;20.63;18.40;;;;;;;21.76;31.79;93616.22;5075528;28;20045;-59
2020/12/10 07:51:19;;;;;;;21.77;18.67;;;;;;;21.02;32.88;93619.19;5075505;28;20055;-57
2020/12/10 07:53:48;;;;;;;25.88;21.85;;;;;;;22.17;31.21;93627.41;5074946;28;20397;-56
2020/12/10 07:56:22;;;;;;;27.35;22.27;;;;;;;21.91;31.20;93628.44;5084161;28;20058;-57
2020/12/10 07:59:11;;;;;;;24.15;20.73;;;;;;;20.92;32.99;93624.09;5077949;28;20390;-59
2020/12/10 08:01:53;;;;;;;18.08;15.60;;;;;;;20.56;33.72;93622.28;5061401;28;20058;-59
2020/12/10 08:04:21;;;;;;;17.10;13.27;;;;;;;20.47;33.69;93635.09;5082621;28;20050;-58
2020/12/10 08:06:49;;;;;;;17.33;15.20;;;;;;;20.90;33.57;93641.53;5102094;28;20051;-59
2020/12/10 08:09:18;;;;;;;19.10;14.35;;;;;;;22.17;31.00;93634.63;5095576;28;20328;-59
2020/12/10 08:11:53;;;;;;;18.38;14.50;;;;;;;20.97;33.38;93640.81;5095689;28;20051;-59
2020/12/10 08:14:27;;;;;;;16.55;14.13;;;;;;;20.80;33.73;93636.88;5095599;28;20054;-58
2020/12/10 08:16:55;;;;;;;15.13;12.63;;;;;;;20.72;33.96;93628.09;5088716;28;20068;-55
2020/12/10 08:19:30;;;;;;;14.68;12.18;;;;;;;21.08;33.16;93631.78;5095495;28;20454;-57
2020/12/10 08:21:58;;;;;;;14.55;10.90;;;;;;;22.01;31.52;93630.38;5112770;28;20059;-57
2020/12/10 08:24:43;;;;;;;13.55;11.77;;;;;;;20.83;33.74;93621.00;5115826;28;20067;-58
2020/12/10 08:27:12;;;;;;;11.35;10.02;;;;;;;20.59;34.16;93614.34;5099040;28;20371;-59
2020/12/10 08:29:39;;;;;;;11.77;10.57;;;;;;;20.65;33.88;93620.06;5095224;28;20048;-59
2020/12/10 08:32:06;;;;;;;15.05;10.73;;;;;;;20.74;34.54;93611.78;5095345;28;20059;-62
2020/12/10 08:34:33;;;;;;;13.23;10.13;;;;;;;20.94;33.80;93621.06;5102007;28;20047;-58
2020/12/10 08:37:08;;;;;;;13.80;10.88;;;;;;;19.39;37.27;93624.34;5100931;28;20052;-57
2020/12/10 08:39:38;;;;;;;15.85;10.43;;;;;;;20.32;35.62;93621.66;5075138;28;20052;-57
2020/12/10 08:42:05;;;;;;;14.60;11.35;;;;;;;20.51;34.52;93620.72;5075072;28;20051;-57
2020/12/10 08:44:50;;;;;;;11.88;10.40;;;;;;;21.25;33.22;93619.75;5074910;28;20048;-58
2020/12/10 08:47:28;;;;;;;16.58;11.02;;;;;;;21.03;34.09;93604.78;5090643;28;20450;-58
2020/12/10 08:53:09;;;;;;;15.57;12.60;;;;;;;21.05;34.07;93594.56;5078189;28;20048;-58
2020/12/10 08:55:37;;;;;;;16.10;11.82;;;;;;;21.09;34.05;93595.34;5094843;28;20055;-56
2020/12/10 08:58:05;;;;;;;14.18;12.13;;;;;;;20.76;34.17;93594.34;5103306;28;20039;-56
2020/12/10 09:00:35;;;;;;;13.35;11.95;;;;;;;20.92;34.09;93596.75;5115592;28;20343;-56
2020/12/10 09:03:02;;;;;;;14.88;12.73;;;;;;;20.89;34.41;93595.59;5115408;28;20044;-56
2020/12/10 09:05:29;;;;;;;17.08;12.85;;;;;;;20.86;34.02;93590.28;5114451;28;20389;-59
2020/12/10 09:07:57;;;;;;;16.85;13.70;;;;;;;20.79;34.14;93583.00;5098618;28;20056;-55
2020/12/10 09:10:27;;;;;;;16.00;12.48;;;;;;;20.75;34.45;93571.59;5099045;28;20052;-56
2020/12/10 09:12:56;;;;;;;16.85;14.85;;;;;;;20.49;34.72;93575.19;5098801;28;20040;-57
2020/12/10 09:15:23;;;;;;;17.00;13.73;;;;;;;21.02;34.17;93580.13;5098767;28;20059;-58
2020/12/10 09:17:50;;;;;;;16.10;14.38;;;;;;;22.03;32.02;93574.88;5093385;28;20044;-57
2020/12/10 09:20:17;;;;;;;18.48;16.48;;;;;;;23.03;30.40;93569.63;5078460;28;20040;-57
2020/12/10 09:22:44;;;;;;;17.42;15.60;;;;;;;21.47;33.43;93562.91;5078180;28;20057;-59
2020/12/10 09:25:12;;;;;;;18.88;16.33;;;;;;;21.12;34.20;93562.72;5078484;28;20052;-58
2020/12/10 09:27:39;;;;;;;18.83;16.80;;;;;;;20.99;34.64;93559.59;5079203;28;20056;-60
2020/12/10 09:30:08;;;;;;;22.67;17.70;;;;;;;21.45;33.71;93570.50;5078273;28;20447;-56
2020/12/10 09:32:36;;;;;;;19.58;17.42;;;;;;;21.62;33.79;93562.97;5078026;28;20053;-58
2020/12/10 09:35:06;;;;;;;21.48;19.13;;;;;;;21.47;34.09;93568.22;5100353;28;20047;-57
2020/12/10 09:37:34;;;;;;;21.05;18.15;;;;;;;21.19;34.69;93584.03;5101411;28;20435;-58
2020/12/10 09:40:03;;;;;;;20.58;17.10;;;;;;;20.88;34.76;93575.47;5098319;28;20048;-57
2020/12/10 09:42:32;;;;;;;20.75;17.65;;;;;;;21.91;32.62;93579.78;5098254;28;20039;-56
2020/12/10 09:44:59;;;;;;;21.45;19.08;;;;;;;21.38;33.47;93583.78;5096766;28;20048;-57
2020/12/10 09:47:26;;;;;;;24.10;19.63;;;;;;;21.36;33.79;93587.94;5097567;28;20048;-60
2020/12/10 09:49:53;;;;;;;26.85;21.88;;;;;;;21.21;33.97;93587.06;5098198;28;20044;-56
2020/12/10 09:52:22;;;;;;;23.17;20.13;;;;;;;21.00;34.71;93582.38;5098165;28;20331;-57
2020/12/10 09:59:49;;;;;;;27.60;22.98;;;;;;;20.65;36.05;93590.09;5084450;28;20048;-57
2020/12/10 10:02:19;;;;;;;29.88;23.27;;;;;;;20.59;36.45;93584.38;5077662;28;20048;-56
2020/12/10 10:04:46;;;;;;;25.95;22.90;;;;;;;20.97;35.73;93571.72;5094834;28;20461;-56
2020/12/10 10:07:14;;;;;;;35.55;28.73;;;;;;;21.52;34.59;93567.09;5095242;28;20060;-60
2020/12/10 10:09:41;;;;;;;36.22;30.05;;;;;;;20.96;35.55;93578.19;5077502;28;20052;-60
2020/12/10 10:12:09;;;;;;;35.40;29.10;;;;;;;21.08;35.38;93577.88;5077573;28;20471;-57
2020/12/10 10:14:37;;;;;;;33.70;27.65;;;;;;;21.46;34.90;93564.06;5077383;28;20056;-59
2020/12/10 10:17:05;;;;;;;37.75;30.70;;;;;;;21.19;35.30;93568.06;5087806;28;20048;-59
2020/12/10 10:19:33;;;;;;;37.33;30.13;;;;;;;20.86;36.29;93556.50;5097648;28;20119;-56
2020/12/10 10:22:00;;;;;;;37.50;30.90;;;;;;;20.89;36.09;93561.06;5096769;28;20044;-57
2020/12/10 10:24:29;;;;;;;38.38;30.55;;;;;;;21.13;35.55;93553.63;5077372;28;20493;-60
2020/12/10 10:26:56;;;;;;;39.05;30.83;;;;;;;21.23;35.00;93532.44;5086689;28;20052;-56
2020/12/10 10:29:23;;;;;;;33.38;29.35;;;;;;;20.96;35.95;93533.00;5097385;28;20059;-57
2020/12/10 10:31:51;;;;;;;34.55;26.65;;;;;;;20.87;36.09;93528.81;5097411;28;20048;-59
2020/12/10 10:34:19;;;;;;;33.90;26.63;;;;;;;20.95;36.03;93532.25;5101982;28;20051;-57
2020/12/10 10:36:49;;;;;;;34.58;28.33;;;;;;;20.84;36.40;93529.53;5108804;28;20478;-56
2020/12/10 10:39:17;;;;;;;33.67;28.45;;;;;;;21.05;36.77;93530.78;5097063;28;20051;-59
2020/12/10 10:41:49;;;;;;;41.38;33.45;;;;;;;21.00;36.48;93533.78;5108404;28;20052;-57
2020/12/10 10:44:16;;;;;;;45.35;38.20;;;;;;;21.13;36.51;93532.34;5105519;28;20051;-58
2020/12/10 10:46:44;;;;;;;44.40;37.33;;;;;;;21.10;36.77;93533.88;5096659;28;20047;-57
2020/12/10 10:49:15;;;;;;;46.25;36.97;;;;;;;21.03;36.78;93522.41;5096889;28;20051;-58
2020/12/10 10:51:46;;;;;;;504.38;351.42;;;;;;;21.27;36.52;93521.81;5097121;28;20048;-57
2020/12/10 10:54:13;;;;;;;234.13;209.48;;;;;;;21.27;36.95;93527.13;5096885;28;20059;-59
2020/12/10 10:56:40;;;;;;;92.07;77.30;;;;;;;21.51;36.25;93531.03;5084527;28;20048;-57
2020/12/10 10:59:08;;;;;;;43.97;35.13;;;;;;;21.53;36.22;93521.53;5096618;28;20040;-60
2020/12/10 11:01:35;;;;;;;36.53;30.92;;;;;;;21.40;36.37;93520.34;5096842;28;20051;-57
2020/12/10 11:04:02;;;;;;;35.65;29.33;;;;;;;21.66;36.12;93515.88;5099027;28;20051;-57
2020/12/10 11:06:30;;;;;;;37.38;31.30;;;;;;;21.59;35.78;93513.19;5111416;28;20048;-60
2020/12/10 11:08:57;;;;;;;32.10;25.80;;;;;;;21.61;35.76;93508.28;5096813;28;20059;-56
2020/12/10 11:11:25;;;;;;;31.35;24.13;;;;;;;21.61;36.15;93510.94;5096897;28;20051;-57
2020/12/10 11:13:52;;;;;;;35.53;27.65;;;;;;;21.84;35.47;93511.34;5096553;28;20051;-57
2020/12/10 11:16:21;;;;;;;40.75;32.10;;;;;;;21.68;36.25;93524.25;5096111;28;20059;-57
2020/12/10 11:18:48;;;;;;;40.00;32.83;;;;;;;21.64;35.63;93518.16;5096430;28;20046;-58
2020/12/10 11:21:16;;;;;;;39.30;30.98;;;;;;;21.68;35.51;93514.38;5096309;28;20051;-57
2020/12/10 11:23:43;;;;;;;41.60;31.45;;;;;;;22.02;34.95;93511.38;5096363;28;20052;-56
2020/12/10 11:26:11;;;;;;;55.63;45.22;;;;;;;21.83;35.31;93507.16;5096195;28;20078;-55
2020/12/10 11:28:38;;;;;;;78.55;61.35;;;;;;;21.61;35.53;93502.97;5095530;28;20378;-58
2020/12/10 11:31:06;;;;;;;76.90;61.90;;;;;;;21.73;35.31;93502.59;5096168;28;20044;-57
2020/12/10 11:33:36;;;;;;;83.97;69.80;;;;;;;21.84;35.43;93506.03;5078240;28;20478;-57
2020/12/10 11:36:05;;;;;;;73.65;61.95;;;;;;;21.48;35.50;93500.63;5114516;28;20044;-62
2020/12/10 11:38:32;;;;;;;79.97;65.05;;;;;;;21.54;35.24;93491.16;5096203;28;20047;-57